createdAt,value
2022-07-28T00:00:54.465Z,1.65
2022-07-28T00:03:23.597Z,1.35
2022-07-28T00:05:51.163Z,1.40
2022-07-28T00:08:18.622Z,1.45
2022-07-28T00:10:46.247Z,1.48
2022-07-28T00:13:13.702Z,1.17
2022-07-28T00:15:41.208Z,1.30
2022-07-28T00:18:08.654Z,1.15
2022-07-28T00:20:37.549Z,1.45
2022-07-28T00:23:05.113Z,1.40
2022-07-28T00:25:32.589Z,1.63
2022-07-28T00:28:00.031Z,1.15
2022-07-28T00:30:27.544Z,1.58
2022-07-28T00:32:55.047Z,1.20
2022-07-28T00:35:29.098Z,1.10
2022-07-28T00:37:59.701Z,1.23
2022-07-28T00:40:47.937Z,1.23
2022-07-28T00:43:15.396Z,1.60
2022-07-28T00:45:42.893Z,1.30
2022-07-28T00:48:10.360Z,1.35
2022-07-28T00:50:39.520Z,1.50
2022-07-28T00:53:08.815Z,1.58
2022-07-28T00:56:05.453Z,1.20
2022-07-28T00:58:23.997Z,1.35
2022-07-28T01:00:51.519Z,1.50
2022-07-28T01:03:19.307Z,1.50
2022-07-28T01:05:48.260Z,1.50
2022-07-28T01:08:22.275Z,1.42
2022-07-28T01:10:54.613Z,1.40
2022-07-28T01:13:30.075Z,1.40
2022-07-28T01:16:01.468Z,1.20
2022-07-28T01:18:33.537Z,1.60
2022-07-28T01:21:03.338Z,1.42
2022-07-28T01:23:49.610Z,1.65
2022-07-28T01:26:28.243Z,1.27
2022-07-28T01:29:02.381Z,1.73
2022-07-28T01:31:36.774Z,1.90
2022-07-28T01:34:07.812Z,1.33
2022-07-28T01:36:39.614Z,1.83
2022-07-28T01:39:07.167Z,1.85
2022-07-28T01:41:35.641Z,1.42
2022-07-28T01:44:05.842Z,1.65
2022-07-28T01:46:35.155Z,1.70
2022-07-28T01:49:02.995Z,1.60
2022-07-28T01:51:31.372Z,1.80
2022-07-28T01:54:00.371Z,1.75
2022-07-28T01:56:29.281Z,1.55
2022-07-28T01:58:57.943Z,1.70
2022-07-28T02:01:26.319Z,1.90
2022-07-28T02:03:55.693Z,1.63
2022-07-28T02:06:23.991Z,1.70
2022-07-28T02:08:51.828Z,1.52
2022-07-28T02:11:39.527Z,1.73
2022-07-28T02:14:07.532Z,1.98
2022-07-28T02:16:35.020Z,1.70
2022-07-28T02:19:04.417Z,2.63
2022-07-28T02:21:33.311Z,1.80
2022-07-28T02:24:04.460Z,1.70
2022-07-28T02:26:33.812Z,1.92
2022-07-28T02:29:02.371Z,1.80
2022-07-28T02:31:30.623Z,1.70
2022-07-28T02:34:02.295Z,2.10
2022-07-28T02:36:31.993Z,1.67
2022-07-28T02:39:03.626Z,2.40
2022-07-28T02:41:32.444Z,1.88
2022-07-28T02:44:01.210Z,1.88
2022-07-28T02:46:33.512Z,2.08
2022-07-28T02:49:04.059Z,2.10
2022-07-28T02:51:34.383Z,2.13
2022-07-28T02:54:02.247Z,1.90
2022-07-28T02:56:30.178Z,2.05
2022-07-28T02:58:58.482Z,2.20
2022-07-28T03:01:26.140Z,2.20
2022-07-28T03:03:55.444Z,2.20
2022-07-28T03:06:25.419Z,2.00
2022-07-28T03:08:57.666Z,2.35
2022-07-28T03:11:25.159Z,2.28
2022-07-28T03:13:52.634Z,2.40
2022-07-28T03:16:20.198Z,2.10
2022-07-28T03:18:48.585Z,2.60
2022-07-28T03:21:16.124Z,2.20
2022-07-28T03:23:44.610Z,2.45
2022-07-28T03:26:18.350Z,2.65
2022-07-28T03:28:47.527Z,2.38
2022-07-28T03:31:16.305Z,1.95
2022-07-28T03:33:43.816Z,2.50
2022-07-28T03:36:13.425Z,2.05
2022-07-28T03:38:44.718Z,2.47
2022-07-28T03:41:12.398Z,2.25
2022-07-28T03:43:41.577Z,2.42
2022-07-28T03:46:13.153Z,2.35
2022-07-28T03:48:41.152Z,2.53
2022-07-28T03:51:09.283Z,2.67
2022-07-28T03:53:37.176Z,2.30
2022-07-28T03:56:04.911Z,2.10
2022-07-28T03:58:32.378Z,2.33
2022-07-28T04:01:01.317Z,2.05
2022-07-28T04:03:42.709Z,2.53
2022-07-28T04:06:11.735Z,2.72
2022-07-28T04:08:39.223Z,2.38
2022-07-28T04:11:06.964Z,2.25
2022-07-28T04:13:36.587Z,2.35
2022-07-28T04:16:06.779Z,2.55
2022-07-28T04:18:34.363Z,2.63
2022-07-28T04:21:01.892Z,2.60
2022-07-28T04:23:30.767Z,2.67
2022-07-28T04:25:58.258Z,2.53
2022-07-28T04:28:25.921Z,2.40
2022-07-28T04:30:53.571Z,2.70
2022-07-28T04:33:22.462Z,2.17
2022-07-28T04:35:49.952Z,2.45
2022-07-28T04:38:17.999Z,2.00
2022-07-28T04:40:45.758Z,2.08
2022-07-28T04:43:13.590Z,2.05
2022-07-28T04:45:53.560Z,2.10
2022-07-28T04:48:23.900Z,2.30
2022-07-28T04:50:52.853Z,2.45
2022-07-28T04:53:20.922Z,2.35
2022-07-28T04:55:49.359Z,2.47
2022-07-28T04:58:18.291Z,2.58
2022-07-28T05:00:49.634Z,2.17
2022-07-28T05:03:17.806Z,2.25
2022-07-28T05:05:49.226Z,2.53
2022-07-28T05:08:22.213Z,2.30
2022-07-28T05:10:53.859Z,2.50
2022-07-28T05:13:21.545Z,2.10
2022-07-28T05:15:49.040Z,2.10
2022-07-28T05:18:16.494Z,2.42
2022-07-28T05:20:44.005Z,2.17
2022-07-28T05:23:12.809Z,2.00
2022-07-28T05:25:40.409Z,2.10
2022-07-28T05:28:07.881Z,2.13
2022-07-28T05:30:36.892Z,2.10
2022-07-28T05:33:04.370Z,1.88
2022-07-28T05:35:31.900Z,2.10
2022-07-28T05:37:59.493Z,2.15
2022-07-28T05:40:28.384Z,2.00
2022-07-28T05:42:55.890Z,1.83
2022-07-28T05:45:23.490Z,2.00
2022-07-28T05:47:52.514Z,2.80
2022-07-28T05:50:21.082Z,2.08
2022-07-28T05:52:48.902Z,1.70
2022-07-28T05:55:17.467Z,2.05
2022-07-28T05:57:46.571Z,2.20
2022-07-28T06:00:15.142Z,1.92
2022-07-28T06:02:45.372Z,1.90
2022-07-28T06:05:13.292Z,2.13
2022-07-28T06:07:42.987Z,1.92
2022-07-28T06:10:12.016Z,2.10
2022-07-28T06:12:42.566Z,2.00
2022-07-28T06:15:14.557Z,1.38
2022-07-28T06:17:42.177Z,1.63
2022-07-28T06:20:10.432Z,3.13
2022-07-28T06:22:44.915Z,1.70
2022-07-28T06:25:16.074Z,1.40
2022-07-28T06:27:43.886Z,1.60
2022-07-28T06:30:12.089Z,1.45
2022-07-28T06:32:40.930Z,1.55
2022-07-28T06:35:09.030Z,1.00
2022-07-28T06:37:36.526Z,1.40
2022-07-28T06:40:04.325Z,1.58
2022-07-28T06:42:31.811Z,1.55
2022-07-28T06:45:00.092Z,1.08
2022-07-28T06:47:27.948Z,1.52
2022-07-28T06:49:56.761Z,1.38
2022-07-28T06:52:24.367Z,1.20
2022-07-28T06:54:53.946Z,1.00
2022-07-28T06:57:28.199Z,1.08
2022-07-28T07:00:02.433Z,1.00
2022-07-28T07:02:30.077Z,1.58
2022-07-28T07:04:59.036Z,0.90
2022-07-28T07:07:26.513Z,0.88
2022-07-28T07:09:54.007Z,2.63
2022-07-28T07:12:21.504Z,1.10
2022-07-28T07:14:48.986Z,1.10
2022-07-28T07:17:16.438Z,0.90
2022-07-28T07:19:43.955Z,1.15
2022-07-28T07:22:14.272Z,0.82
2022-07-28T07:24:41.764Z,1.13
2022-07-28T07:27:09.250Z,0.90
2022-07-28T07:29:36.755Z,0.90
2022-07-28T07:32:10.052Z,0.70
2022-07-28T07:34:39.302Z,0.85
2022-07-28T07:37:07.390Z,0.90
2022-07-28T07:39:36.239Z,0.95
2022-07-28T07:42:03.737Z,0.60
2022-07-28T07:44:31.212Z,1.00
2022-07-28T07:46:58.775Z,1.13
2022-07-28T07:49:26.425Z,1.17
2022-07-28T07:52:13.386Z,0.70
2022-07-28T07:54:42.481Z,1.10
2022-07-28T07:57:09.963Z,0.80
2022-07-28T07:59:37.526Z,0.75
2022-07-28T08:02:05.247Z,0.63
2022-07-28T08:04:37.057Z,0.65
2022-07-28T08:07:05.600Z,0.90
2022-07-28T08:09:33.225Z,0.60
2022-07-28T08:12:02.097Z,0.50
2022-07-28T08:14:30.162Z,0.60
2022-07-28T08:16:59.154Z,0.70
2022-07-28T08:19:26.782Z,0.60
2022-07-28T08:21:55.358Z,0.70
2022-07-28T08:24:32.676Z,0.90
2022-07-28T08:27:02.747Z,0.73
2022-07-28T08:29:30.280Z,0.80
2022-07-28T08:31:58.076Z,0.63
2022-07-28T08:34:27.945Z,0.52
2022-07-28T08:37:01.556Z,0.82
2022-07-28T08:39:29.101Z,0.70
2022-07-28T08:42:00.012Z,0.60
2022-07-28T08:44:34.368Z,0.60
2022-07-28T08:47:02.378Z,0.75
2022-07-28T08:49:30.557Z,0.68
2022-07-28T08:51:58.959Z,1.50
2022-07-28T08:54:28.089Z,0.70
2022-07-28T08:56:55.931Z,0.57
2022-07-28T08:59:23.951Z,0.70
2022-07-28T09:01:57.426Z,0.70
2022-07-28T09:04:25.711Z,0.73
2022-07-28T09:06:53.473Z,0.82
2022-07-28T09:09:21.548Z,0.75
2022-07-28T09:11:49.061Z,0.63
2022-07-28T09:14:16.909Z,0.70
2022-07-28T09:16:45.185Z,0.85
2022-07-28T09:19:14.043Z,0.85
2022-07-28T09:21:42.731Z,0.80
2022-07-28T09:24:10.250Z,1.20
2022-07-28T09:26:37.745Z,0.77
2022-07-28T09:29:07.542Z,0.70
2022-07-28T09:31:35.100Z,0.57
2022-07-28T09:34:03.792Z,0.90
2022-07-28T09:36:39.506Z,0.68
2022-07-28T09:39:07.138Z,0.70
2022-07-28T09:41:46.937Z,0.70
2022-07-28T09:44:18.805Z,0.80
2022-07-28T09:46:46.457Z,0.70
2022-07-28T09:49:14.269Z,0.75
2022-07-28T09:51:43.408Z,0.70
2022-07-28T09:54:12.425Z,0.60
2022-07-28T09:56:41.244Z,0.40
2022-07-28T09:59:09.288Z,0.75
2022-07-28T10:01:51.414Z,0.80
2022-07-28T10:06:48.327Z,0.90
2022-07-28T10:09:15.912Z,0.70
2022-07-28T10:11:43.610Z,0.80
2022-07-28T10:14:13.545Z,0.80
2022-07-28T10:16:43.315Z,0.60
2022-07-28T10:19:10.833Z,0.55
2022-07-28T10:21:42.095Z,0.77
2022-07-28T10:24:14.812Z,0.70
2022-07-28T10:26:44.797Z,0.60
2022-07-28T10:29:13.879Z,0.60
2022-07-28T10:31:45.777Z,0.50
2022-07-28T10:34:18.717Z,0.75
2022-07-28T10:36:53.633Z,0.68
2022-07-28T10:39:23.786Z,0.77
2022-07-28T10:41:51.354Z,0.60
2022-07-28T10:44:20.436Z,0.88
2022-07-28T10:46:48.067Z,0.90
2022-07-28T10:49:15.804Z,0.73
2022-07-28T10:52:02.707Z,0.73
2022-07-28T10:54:37.499Z,0.70
2022-07-28T10:57:11.571Z,0.68
2022-07-28T10:59:45.429Z,0.90
2022-07-28T11:02:27.873Z,0.73
2022-07-28T11:05:01.851Z,0.68
2022-07-28T11:07:38.226Z,0.70
2022-07-28T11:10:17.759Z,0.75
2022-07-28T11:12:49.269Z,0.60
2022-07-28T11:15:26.762Z,0.88
2022-07-28T11:17:58.553Z,0.68
2022-07-28T11:20:41.902Z,0.80
2022-07-28T11:23:28.635Z,0.70
2022-07-28T11:26:12.865Z,0.68
2022-07-28T11:28:56.245Z,0.60
2022-07-28T11:31:56.506Z,0.68
2022-07-28T11:34:24.878Z,0.57
2022-07-28T11:37:03.271Z,0.80
2022-07-28T11:39:31.283Z,0.75
2022-07-28T11:42:27.086Z,0.80
2022-07-28T11:44:55.738Z,0.70
2022-07-28T11:47:25.410Z,0.80
2022-07-28T11:50:11.892Z,1.05
2022-07-28T11:52:39.964Z,0.90
2022-07-28T11:55:07.647Z,0.93
2022-07-28T11:57:39.791Z,0.88
2022-07-28T12:00:08.226Z,0.70
2022-07-28T12:02:37.149Z,0.60
2022-07-28T12:05:06.730Z,0.77
2022-07-28T12:07:36.268Z,0.80
2022-07-28T12:10:44.204Z,0.70
2022-07-28T12:13:10.202Z,0.80
2022-07-28T12:15:37.977Z,0.60
2022-07-28T12:18:11.489Z,0.75
2022-07-28T12:20:45.284Z,0.70
2022-07-28T12:23:16.408Z,0.82
2022-07-28T12:25:44.859Z,0.52
2022-07-28T12:28:16.030Z,1.00
2022-07-28T12:30:43.659Z,0.63
2022-07-28T12:33:19.658Z,0.90
2022-07-28T12:35:47.348Z,0.75
2022-07-28T12:38:15.069Z,0.68
2022-07-28T12:40:42.696Z,0.65
2022-07-28T12:43:10.208Z,0.60
2022-07-28T12:45:44.709Z,0.95
2022-07-28T12:48:13.914Z,0.70
2022-07-28T12:50:42.752Z,0.95
2022-07-28T12:53:11.351Z,0.77
2022-07-28T12:55:39.327Z,1.00
2022-07-28T12:58:07.883Z,0.88
2022-07-28T13:00:36.750Z,0.65
2022-07-28T13:03:19.969Z,0.60
2022-07-28T13:06:04.155Z,0.52
2022-07-28T13:08:44.656Z,0.88
2022-07-28T13:13:56.545Z,0.65
2022-07-28T13:16:24.743Z,0.75
2022-07-28T13:18:53.362Z,0.75
2022-07-28T13:21:57.335Z,0.60
2022-07-28T13:24:27.911Z,0.60
2022-07-28T13:26:55.530Z,1.00
2022-07-28T13:29:23.695Z,0.77
2022-07-28T13:31:52.167Z,0.50
2022-07-28T13:34:19.767Z,0.65
2022-07-28T13:36:48.575Z,0.80
2022-07-28T13:39:16.070Z,0.90
2022-07-28T13:41:56.439Z,0.77
2022-07-28T13:44:25.602Z,0.82
2022-07-28T13:46:53.165Z,0.73
2022-07-28T13:49:23.506Z,0.68
2022-07-28T13:51:52.422Z,0.80
2022-07-28T13:54:20.358Z,1.33
2022-07-28T13:56:48.335Z,0.60
2022-07-28T13:59:15.953Z,0.80
2022-07-28T14:01:43.494Z,0.90
2022-07-28T14:04:16.624Z,0.60
2022-07-28T14:06:45.219Z,1.00
2022-07-28T14:09:17.963Z,0.60
2022-07-28T14:11:49.652Z,0.77
2022-07-28T14:14:23.863Z,0.60
2022-07-28T14:16:52.253Z,0.65
2022-07-28T14:19:23.525Z,0.77
2022-07-28T14:22:12.753Z,0.60
2022-07-28T14:24:41.949Z,0.73
2022-07-28T14:27:10.353Z,0.70
2022-07-28T14:29:38.247Z,0.68
2022-07-28T14:32:06.102Z,0.82
2022-07-28T14:34:34.442Z,0.85
2022-07-28T14:37:05.828Z,0.90
2022-07-28T14:39:36.867Z,0.90
2022-07-28T14:42:05.958Z,0.65
2022-07-28T14:44:33.722Z,0.88
2022-07-28T14:47:01.228Z,0.55
2022-07-28T14:49:29.498Z,0.80
2022-07-28T14:51:57.838Z,0.60
2022-07-28T14:54:25.327Z,0.75
2022-07-28T14:56:52.911Z,0.73
2022-07-28T14:59:21.785Z,0.90
2022-07-28T15:01:50.076Z,0.70
2022-07-28T15:04:18.199Z,0.90
2022-07-28T15:06:47.177Z,0.80
2022-07-28T15:09:14.786Z,0.98
2022-07-28T15:11:44.093Z,1.00
2022-07-28T15:14:11.819Z,0.90
2022-07-28T15:16:43.609Z,0.75
2022-07-28T15:19:11.558Z,0.80
2022-07-28T15:21:40.500Z,1.00
2022-07-28T15:24:08.933Z,0.88
2022-07-28T15:26:36.918Z,0.55
2022-07-28T15:29:04.792Z,1.00
2022-07-28T15:31:32.497Z,1.05
2022-07-28T15:34:01.587Z,1.00
2022-07-28T15:36:30.245Z,0.80
2022-07-28T15:39:00.158Z,0.68
2022-07-28T15:41:27.658Z,0.83
2022-07-28T15:43:56.193Z,0.88
2022-07-28T15:46:23.708Z,1.02
2022-07-28T15:48:51.197Z,0.82
2022-07-28T15:51:24.093Z,0.90
2022-07-28T15:53:56.182Z,0.90
2022-07-28T15:56:23.809Z,0.70
2022-07-28T15:58:51.269Z,0.82
2022-07-28T16:01:18.867Z,0.77
2022-07-28T16:03:46.358Z,0.93
2022-07-28T16:06:13.882Z,0.75
2022-07-28T16:08:42.811Z,1.05
2022-07-28T16:11:11.537Z,0.98
2022-07-28T16:13:39.830Z,0.50
2022-07-28T16:16:08.332Z,0.90
2022-07-28T16:18:39.775Z,0.75
2022-07-28T16:21:08.014Z,1.00
2022-07-28T16:23:35.889Z,1.00
2022-07-28T16:26:07.447Z,0.90
2022-07-28T16:28:34.959Z,0.98
2022-07-28T16:31:02.568Z,0.90
2022-07-28T16:33:33.348Z,0.70
2022-07-28T16:36:01.410Z,0.98
2022-07-28T16:38:31.305Z,0.70
2022-07-28T16:40:58.828Z,0.83
2022-07-28T16:43:27.730Z,0.68
2022-07-28T16:45:55.477Z,0.98
2022-07-28T16:48:23.023Z,1.00
2022-07-28T16:50:51.592Z,0.80
2022-07-28T16:53:19.318Z,0.90
2022-07-28T16:55:48.073Z,0.80
2022-07-28T16:58:15.624Z,1.02
2022-07-28T17:00:45.023Z,0.70
2022-07-28T17:03:12.536Z,1.10
2022-07-28T17:05:39.979Z,1.02
2022-07-28T17:08:08.397Z,0.80
2022-07-28T17:10:35.885Z,0.82
2022-07-28T17:13:03.446Z,0.90
2022-07-28T17:15:30.955Z,0.90
2022-07-28T17:17:59.787Z,0.80
2022-07-28T17:20:27.363Z,1.00
2022-07-28T17:22:54.842Z,0.85
2022-07-28T17:25:50.223Z,0.98
2022-07-28T17:28:09.960Z,0.90
2022-07-28T17:30:37.513Z,1.13
2022-07-28T17:33:09.022Z,0.95
2022-07-28T17:35:37.162Z,0.82
2022-07-28T17:38:09.086Z,0.98
2022-07-28T17:40:37.298Z,0.73
2022-07-28T17:43:04.747Z,0.68
2022-07-28T17:45:32.253Z,0.80
2022-07-28T17:47:59.731Z,0.80
2022-07-28T17:50:29.983Z,0.90
2022-07-28T17:53:01.603Z,0.85
2022-07-28T17:55:58.167Z,0.90
2022-07-28T17:58:27.822Z,1.02
2022-07-28T18:00:57.699Z,0.70
2022-07-28T18:03:27.919Z,0.80
2022-07-28T18:05:58.620Z,0.73
2022-07-28T18:08:26.187Z,1.10
2022-07-28T18:10:53.956Z,0.65
2022-07-28T18:13:22.171Z,0.80
2022-07-28T18:15:50.044Z,0.88
2022-07-28T18:18:17.810Z,0.75
2022-07-28T18:20:45.356Z,1.00
2022-07-28T18:23:14.566Z,1.00
2022-07-28T18:25:45.260Z,0.93
2022-07-28T18:30:40.578Z,0.75
2022-07-28T18:33:08.220Z,1.02
2022-07-28T18:35:38.529Z,0.88
2022-07-28T18:38:07.245Z,1.00
2022-07-28T18:40:36.136Z,0.82
2022-07-28T18:43:03.610Z,0.80
2022-07-28T18:45:31.113Z,0.70
2022-07-28T18:48:00.341Z,0.90
2022-07-28T18:50:31.440Z,0.88
2022-07-28T18:52:59.706Z,0.85
2022-07-28T18:55:27.202Z,0.80
2022-07-28T18:57:56.079Z,1.20
2022-07-28T19:00:23.595Z,0.82
2022-07-28T19:02:51.153Z,1.10
2022-07-28T19:05:18.687Z,0.80
2022-07-28T19:07:46.178Z,0.70
2022-07-28T19:10:13.650Z,1.00
2022-07-28T19:12:41.097Z,0.80
2022-07-28T19:15:10.313Z,0.90
2022-07-28T19:17:39.856Z,1.20
2022-07-28T19:20:11.604Z,0.90
2022-07-28T19:22:39.309Z,0.85
2022-07-28T19:25:08.485Z,0.80
2022-07-28T19:27:39.414Z,0.88
2022-07-28T19:30:07.514Z,0.90
2022-07-28T19:32:38.436Z,1.17
2022-07-28T19:35:06.297Z,0.73
2022-07-28T19:37:33.755Z,0.73
2022-07-28T19:40:01.228Z,0.90
2022-07-28T19:42:29.517Z,0.85
2022-07-28T19:44:57.194Z,0.90
2022-07-28T19:47:24.679Z,0.70
2022-07-28T19:49:53.497Z,0.70
2022-07-28T19:52:23.951Z,1.00
2022-07-28T19:54:51.641Z,0.90
2022-07-28T19:57:22.384Z,0.70
2022-07-28T19:59:49.868Z,0.75
2022-07-28T20:02:17.416Z,0.80
2022-07-28T20:04:44.907Z,0.80
2022-07-28T20:07:13.716Z,1.00
2022-07-28T20:09:41.189Z,0.90
2022-07-28T20:12:10.979Z,0.90
2022-07-28T20:14:38.496Z,1.10
2022-07-28T20:17:06.130Z,1.00
2022-07-28T20:19:35.565Z,1.75
2022-07-28T20:22:03.299Z,1.30
2022-07-28T20:24:32.372Z,1.27
2022-07-28T20:27:00.953Z,1.10
2022-07-28T20:29:28.480Z,1.10
2022-07-28T20:31:55.957Z,1.20
2022-07-28T20:34:23.668Z,1.40
2022-07-28T20:36:53.253Z,1.00
2022-07-28T20:39:43.972Z,1.10
2022-07-28T20:42:09.593Z,1.15
2022-07-28T20:44:37.760Z,1.33
2022-07-28T20:47:05.742Z,1.30
2022-07-28T20:49:33.308Z,1.20
2022-07-28T20:52:01.416Z,1.00
2022-07-28T20:54:28.960Z,1.60
2022-07-28T20:56:56.637Z,1.30
2022-07-28T20:59:27.979Z,1.48
2022-07-28T21:01:57.669Z,1.20
2022-07-28T21:04:28.581Z,1.27
2022-07-28T21:09:28.680Z,1.60
2022-07-28T21:11:56.443Z,1.10
2022-07-28T21:14:25.312Z,1.15
2022-07-28T21:16:54.187Z,1.08
2022-07-28T21:19:21.782Z,1.35
2022-07-28T21:21:52.183Z,1.48
2022-07-28T21:24:19.869Z,1.40
2022-07-28T21:26:49.352Z,2.13
2022-07-28T21:32:04.100Z,1.63
2022-07-28T21:34:31.991Z,1.10
2022-07-28T21:37:01.850Z,1.13
2022-07-28T21:39:29.324Z,1.40
2022-07-28T21:41:56.791Z,1.40
2022-07-28T21:44:24.251Z,1.40
2022-07-28T21:46:53.057Z,1.13
2022-07-28T21:49:20.608Z,1.13
2022-07-28T21:51:48.072Z,1.40
2022-07-28T21:54:16.007Z,1.20
2022-07-28T21:56:44.002Z,1.20
2022-07-28T21:59:11.685Z,1.13
2022-07-28T22:01:39.234Z,1.15
2022-07-28T22:04:08.064Z,1.08
2022-07-28T22:06:35.524Z,1.40
2022-07-28T22:09:03.603Z,1.27
2022-07-28T22:11:31.077Z,1.13
2022-07-28T22:13:59.156Z,0.90
2022-07-28T22:16:26.696Z,1.20
2022-07-28T22:18:54.244Z,1.13
2022-07-28T22:21:23.006Z,1.20
2022-07-28T22:23:50.452Z,1.48
2022-07-28T22:26:17.998Z,1.25
2022-07-28T22:28:45.472Z,1.35
2022-07-28T22:31:13.004Z,1.10
2022-07-28T22:33:40.778Z,1.17
2022-07-28T22:36:09.072Z,1.23
2022-07-28T22:38:38.296Z,1.40
2022-07-28T22:41:05.770Z,1.05
2022-07-28T22:43:34.547Z,1.20
2022-07-28T22:46:02.110Z,1.48
2022-07-28T22:48:29.689Z,1.38
2022-07-28T22:50:57.199Z,1.20
2022-07-28T22:53:24.671Z,1.20
2022-07-28T22:58:40.058Z,1.10
2022-07-28T23:01:07.673Z,1.13
2022-07-28T23:03:35.564Z,1.10
2022-07-28T23:06:03.842Z,1.50
2022-07-28T23:08:31.359Z,1.10
2022-07-28T23:11:00.228Z,1.27
2022-07-28T23:13:27.752Z,1.23
2022-07-28T23:15:55.344Z,1.48
2022-07-28T23:18:22.874Z,1.05
2022-07-28T23:20:50.405Z,1.65
2022-07-28T23:23:18.569Z,1.30
2022-07-28T23:25:46.505Z,1.05
2022-07-28T23:28:15.354Z,1.08
2022-07-28T23:30:42.897Z,1.40
2022-07-28T23:33:54.530Z,1.20
2022-07-28T23:35:58.071Z,1.42
2022-07-28T23:38:25.625Z,1.25
2022-07-28T23:40:53.168Z,1.40
2022-07-28T23:43:22.050Z,1.30
2022-07-28T23:45:49.586Z,1.33
2022-07-28T23:48:17.090Z,1.70
2022-07-28T23:50:44.612Z,1.55
2022-07-28T23:53:12.149Z,1.05
2022-07-28T23:55:39.739Z,1.48
2022-07-28T23:58:07.257Z,1.33
